Friday, October 24, 2014
09:36 UTC
  |  Log In   |  Register Free
Airport Search:

Foothills Regional Airport
(KMRN)

Foothills Regional Airport Diagram
No Airport Diagram Available

FAA data valid effective September 18, 2014 - November 13, 2014 (unless otherwise noted).

 
 
 
 
 
 
 
 
 
 
 
 
 
 

Current Aviation Weather for Foothills Regional Airport (KMRN)

The most recent METAR observation for KMRN was updated at: 0911
METAR Summary (Translated METAR)
KMRN
240855Z AUTO 00000KT 4SM BR CLR 03/03 A3009 RMK AO2 T00290029
KHKY
240853Z AUTO 27003KT 10SM CLR 06/04 A3004 RMK AO2 SLP160 T00610039 58002
(11.8 nm SE from KMRN)
KFQD
240855Z AUTO 00000KT 10SM CLR 07/05 A3005 RMK AO2 T00650045
(28.3 nm SW from KMRN)
TAF Summary (Translated TAF)
KHKY
(11.8 nm SE from KMRN)
240544Z 2406/2506 31003KT P6SM SCT180 BKN250 FM241800 22003KT P6SM SCT170
  Airport Weather Conditions for KMRN

 Current Weather at MRN
37° F
Fog/Mist
North winds at 0.0 mph
MRN NOAA Radar

Pressure: 30.09 in
Humidity: 100%
Wind: Calm
Dew Point: 37.2°F
Visibility: 4.00 mi


Airport Weather Forecast for KMRN

Translated METAR and TAF for KMRN
Translated METAR for KMRN (0931 UTC 24 October 2014)
found at http://aviationweather.gov/adds/metars/
 
METAR text: KMRN 240915Z AUTO 00000KT 4SM BR CLR 03/03 A3010 RMK AO2 T00260026
Conditions at: KMRN (MORGANTON/LENOIR, NC, US) observed 0915 UTC 24 October 2014
Temperature: 2.6°C (37°F)
Dewpoint: 2.6°C (37°F) [RH = 100%]
Pressure (altimeter): 30.10 inches Hg (1019.4 mb)
Winds: calm
Visibility: 4 miles (6 km)
Ceiling: at least 12,000 feet AGL
Clouds: sky clear below 12,000 feet AGL
Weather: BR  (mist)
Translated TAF for KMRN

There is no translated TAF available for this airport

Find All Airport Services Find A Hotel Find A Rental Car Find A Golf Course Find A Restaurant $100 Hamburger



FBO's on the Field
FBO Company Facility Photos Services Transportation Aviation Fuel Prices: Prices include tax
Catering Weather Repair Courtesy Rental Type 100LL JetA JetA+ MOGAS 8087
 
Foothills Aviation

This FBO has not yet been rated
FS:Shell
Last Updated: Oct-10
Login to update fuel prices
SS:
Contact Foothills AviationMore FBO Information
 
Add another FBO Facility Photos Catering Weather Repair Courtesy Rental Type 100LL JetA JetA+ MOGAS 8087
Services Transportation Aviation Fuel Prices: Prices include tax


model-print
model-print
model-print
model-print